sensor_id;sensor_type;location;lat;lon;timestamp;pressure;altitude;pressure_sealevel;temperature;humidity
7748;BME280;3918;42.564;23.164;2023-03-08T00:00:39;-11650.84;;;-142.29;100.00
7748;BME280;3918;42.564;23.164;2023-03-08T00:03:06;-11650.84;;;-142.29;100.00
7748;BME280;3918;42.564;23.164;2023-03-08T00:05:33;-11650.84;;;-142.29;100.00
7748;BME280;3918;42.564;23.164;2023-03-08T00:08:02;-11650.84;;;-142.29;100.00
7748;BME280;3918;42.564;23.164;2023-03-08T00:10:29;-11650.84;;;-142.29;100.00
7748;BME280;3918;42.564;23.164;2023-03-08T00:12:56;-11650.84;;;-142.29;100.00
7748;BME280;3918;42.564;23.164;2023-03-08T00:15:24;-11650.84;;;-142.29;100.00
7748;BME280;3918;42.564;23.164;2023-03-08T00:17:51;-11650.84;;;-142.29;100.00
7748;BME280;3918;42.564;23.164;2023-03-08T00:20:18;-11650.84;;;-142.29;100.00
7748;BME280;3918;42.564;23.164;2023-03-08T00:22:44;-11650.84;;;-142.29;100.00
7748;BME280;3918;42.564;23.164;2023-03-08T00:25:11;-11650.84;;;-142.29;100.00
7748;BME280;3918;42.564;23.164;2023-03-08T00:27:40;-11650.84;;;-142.29;100.00
7748;BME280;3918;42.564;23.164;2023-03-08T00:30:09;-11650.84;;;-142.29;100.00
7748;BME280;3918;42.564;23.164;2023-03-08T00:32:37;-11650.84;;;-142.29;100.00
7748;BME280;3918;42.564;23.164;2023-03-08T00:35:05;-11650.84;;;-142.29;100.00
7748;BME280;3918;42.564;23.164;2023-03-08T00:37:32;-11650.84;;;-142.29;100.00
7748;BME280;3918;42.564;23.164;2023-03-08T00:39:58;-11650.84;;;-142.29;100.00
7748;BME280;3918;42.564;23.164;2023-03-08T00:42:25;-11650.84;;;-142.29;100.00
7748;BME280;3918;42.564;23.164;2023-03-08T00:44:52;-11650.84;;;-142.29;100.00
7748;BME280;3918;42.564;23.164;2023-03-08T00:47:19;-11650.84;;;-142.29;100.00
7748;BME280;3918;42.564;23.164;2023-03-08T00:49:47;-11650.84;;;-142.29;100.00
7748;BME280;3918;42.564;23.164;2023-03-08T00:52:13;-11650.84;;;-142.29;100.00
7748;BME280;3918;42.564;23.164;2023-03-08T00:54:40;-11650.84;;;-142.29;100.00
7748;BME280;3918;42.564;23.164;2023-03-08T00:57:07;-11650.84;;;-142.29;100.00
7748;BME280;3918;42.564;23.164;2023-03-08T00:59:34;-11650.84;;;-142.29;100.00
7748;BME280;3918;42.564;23.164;2023-03-08T01:02:01;-11650.84;;;-142.29;100.00
7748;BME280;3918;42.564;23.164;2023-03-08T01:04:27;-11650.84;;;-142.29;100.00
7748;BME280;3918;42.564;23.164;2023-03-08T01:06:55;-11650.84;;;-142.29;100.00
7748;BME280;3918;42.564;23.164;2023-03-08T01:09:22;-11650.84;;;-142.29;100.00
7748;BME280;3918;42.564;23.164;2023-03-08T01:11:49;-11650.84;;;-142.29;100.00
7748;BME280;3918;42.564;23.164;2023-03-08T01:14:16;-11650.84;;;-142.29;100.00
7748;BME280;3918;42.564;23.164;2023-03-08T01:16:42;-11650.84;;;-142.29;100.00
7748;BME280;3918;42.564;23.164;2023-03-08T01:19:10;-11650.84;;;-142.29;100.00
7748;BME280;3918;42.564;23.164;2023-03-08T01:21:37;-11650.84;;;-142.29;100.00
7748;BME280;3918;42.564;23.164;2023-03-08T01:24:05;-11650.84;;;-142.29;100.00
7748;BME280;3918;42.564;23.164;2023-03-08T01:26:32;-11650.84;;;-142.29;100.00
7748;BME280;3918;42.564;23.164;2023-03-08T01:28:59;-11650.84;;;-142.29;100.00
7748;BME280;3918;42.564;23.164;2023-03-08T01:31:27;-11650.84;;;-142.29;100.00
7748;BME280;3918;42.564;23.164;2023-03-08T01:33:55;-11650.84;;;-142.29;100.00
7748;BME280;3918;42.564;23.164;2023-03-08T01:36:24;-11650.84;;;-142.29;100.00
7748;BME280;3918;42.564;23.164;2023-03-08T01:38:51;-11650.84;;;-142.29;100.00
7748;BME280;3918;42.564;23.164;2023-03-08T01:41:21;-11650.84;;;-142.29;100.00
7748;BME280;3918;42.564;23.164;2023-03-08T01:43:49;-11650.84;;;-142.29;100.00
7748;BME280;3918;42.564;23.164;2023-03-08T01:46:18;-11650.84;;;-142.29;100.00
7748;BME280;3918;42.564;23.164;2023-03-08T01:48:51;-11650.84;;;-142.29;100.00
7748;BME280;3918;42.564;23.164;2023-03-08T01:51:23;-11650.84;;;-142.29;100.00
7748;BME280;3918;42.564;23.164;2023-03-08T01:53:52;-11650.84;;;-142.29;100.00
7748;BME280;3918;42.564;23.164;2023-03-08T01:56:21;-11650.84;;;-142.29;100.00
7748;BME280;3918;42.564;23.164;2023-03-08T01:58:49;-11650.84;;;-142.29;100.00
7748;BME280;3918;42.564;23.164;2023-03-08T02:01:18;-11650.84;;;-142.29;100.00
7748;BME280;3918;42.564;23.164;2023-03-08T02:03:45;-11650.84;;;-142.29;100.00
7748;BME280;3918;42.564;23.164;2023-03-08T02:06:13;-11650.84;;;-142.29;100.00
7748;BME280;3918;42.564;23.164;2023-03-08T02:08:41;-11650.84;;;-142.29;100.00
7748;BME280;3918;42.564;23.164;2023-03-08T02:11:09;-11650.84;;;-142.29;100.00
7748;BME280;3918;42.564;23.164;2023-03-08T02:13:38;-11650.84;;;-142.29;100.00
7748;BME280;3918;42.564;23.164;2023-03-08T02:16:07;-11650.84;;;-142.29;100.00
7748;BME280;3918;42.564;23.164;2023-03-08T02:18:35;-11650.84;;;-142.29;100.00
7748;BME280;3918;42.564;23.164;2023-03-08T02:21:02;-11650.84;;;-142.29;100.00
7748;BME280;3918;42.564;23.164;2023-03-08T02:23:30;-11650.84;;;-142.29;100.00
7748;BME280;3918;42.564;23.164;2023-03-08T02:26:00;-11650.84;;;-142.29;100.00
7748;BME280;3918;42.564;23.164;2023-03-08T02:28:29;-11650.84;;;-142.29;100.00
7748;BME280;3918;42.564;23.164;2023-03-08T02:30:56;-11650.84;;;-142.29;100.00
7748;BME280;3918;42.564;23.164;2023-03-08T02:33:24;-11650.84;;;-142.29;100.00
7748;BME280;3918;42.564;23.164;2023-03-08T02:35:51;-11650.84;;;-142.29;100.00
7748;BME280;3918;42.564;23.164;2023-03-08T02:38:19;-11650.84;;;-142.29;100.00
7748;BME280;3918;42.564;23.164;2023-03-08T02:40:47;-11650.84;;;-142.29;100.00
7748;BME280;3918;42.564;23.164;2023-03-08T02:43:16;-11650.84;;;-142.29;100.00
7748;BME280;3918;42.564;23.164;2023-03-08T02:45:42;-11650.84;;;-142.29;100.00
7748;BME280;3918;42.564;23.164;2023-03-08T02:48:09;-11650.84;;;-142.29;100.00
7748;BME280;3918;42.564;23.164;2023-03-08T02:50:36;-11650.84;;;-142.29;100.00
7748;BME280;3918;42.564;23.164;2023-03-08T02:53:03;-11650.84;;;-142.29;100.00
7748;BME280;3918;42.564;23.164;2023-03-08T02:55:30;-11650.84;;;-142.29;100.00
7748;BME280;3918;42.564;23.164;2023-03-08T02:58:01;-11650.84;;;-142.29;100.00
7748;BME280;3918;42.564;23.164;2023-03-08T03:00:27;-11650.84;;;-142.29;100.00
7748;BME280;3918;42.564;23.164;2023-03-08T03:02:54;-11650.84;;;-142.29;100.00
7748;BME280;3918;42.564;23.164;2023-03-08T03:05:21;-11650.84;;;-142.29;100.00
7748;BME280;3918;42.564;23.164;2023-03-08T03:07:47;-11650.84;;;-142.29;100.00
7748;BME280;3918;42.564;23.164;2023-03-08T03:10:15;-11650.84;;;-142.29;100.00
7748;BME280;3918;42.564;23.164;2023-03-08T03:12:41;-11650.84;;;-142.29;100.00
7748;BME280;3918;42.564;23.164;2023-03-08T03:15:11;-11650.84;;;-142.29;100.00
7748;BME280;3918;42.564;23.164;2023-03-08T03:17:38;-11650.84;;;-142.29;100.00
7748;BME280;3918;42.564;23.164;2023-03-08T03:20:06;-11650.84;;;-142.29;100.00
7748;BME280;3918;42.564;23.164;2023-03-08T03:22:33;-11650.84;;;-142.29;100.00
7748;BME280;3918;42.564;23.164;2023-03-08T03:25:00;-11650.84;;;-142.29;100.00
7748;BME280;3918;42.564;23.164;2023-03-08T03:27:27;-11650.84;;;-142.29;100.00
7748;BME280;3918;42.564;23.164;2023-03-08T03:29:54;-11650.84;;;-142.29;100.00
7748;BME280;3918;42.564;23.164;2023-03-08T03:32:22;-11650.84;;;-142.29;100.00
7748;BME280;3918;42.564;23.164;2023-03-08T03:34:49;-11650.84;;;-142.29;100.00
7748;BME280;3918;42.564;23.164;2023-03-08T03:37:15;-11650.84;;;-142.29;100.00
7748;BME280;3918;42.564;23.164;2023-03-08T03:39:42;-11650.84;;;-142.29;100.00
7748;BME280;3918;42.564;23.164;2023-03-08T03:42:09;-11650.84;;;-142.29;100.00
7748;BME280;3918;42.564;23.164;2023-03-08T03:44:36;-11650.84;;;-142.29;100.00
7748;BME280;3918;42.564;23.164;2023-03-08T03:47:03;-11650.84;;;-142.29;100.00
7748;BME280;3918;42.564;23.164;2023-03-08T03:49:31;-11650.84;;;-142.29;100.00
7748;BME280;3918;42.564;23.164;2023-03-08T03:51:58;-11650.84;;;-142.29;100.00
7748;BME280;3918;42.564;23.164;2023-03-08T03:54:25;-11650.84;;;-142.29;100.00
7748;BME280;3918;42.564;23.164;2023-03-08T03:56:52;-11650.84;;;-142.29;100.00
7748;BME280;3918;42.564;23.164;2023-03-08T03:59:22;-11650.84;;;-142.29;100.00
7748;BME280;3918;42.564;23.164;2023-03-08T04:01:49;-11650.84;;;-142.29;100.00
7748;BME280;3918;42.564;23.164;2023-03-08T04:04:16;-11650.84;;;-142.29;100.00
7748;BME280;3918;42.564;23.164;2023-03-08T04:06:44;-11650.84;;;-142.29;100.00
7748;BME280;3918;42.564;23.164;2023-03-08T04:09:13;-11650.84;;;-142.29;100.00
7748;BME280;3918;42.564;23.164;2023-03-08T04:11:40;-11650.84;;;-142.29;100.00
7748;BME280;3918;42.564;23.164;2023-03-08T04:14:07;-11650.84;;;-142.29;100.00
7748;BME280;3918;42.564;23.164;2023-03-08T04:16:35;-11650.84;;;-142.29;100.00
7748;BME280;3918;42.564;23.164;2023-03-08T04:19:03;-11650.84;;;-142.29;100.00
7748;BME280;3918;42.564;23.164;2023-03-08T04:21:32;-11650.84;;;-142.29;100.00
7748;BME280;3918;42.564;23.164;2023-03-08T04:24:00;-11650.84;;;-142.29;100.00
7748;BME280;3918;42.564;23.164;2023-03-08T04:26:28;-11650.84;;;-142.29;100.00
7748;BME280;3918;42.564;23.164;2023-03-08T04:28:55;-11650.84;;;-142.29;100.00
7748;BME280;3918;42.564;23.164;2023-03-08T04:31:23;-11650.84;;;-142.29;100.00
7748;BME280;3918;42.564;23.164;2023-03-08T04:33:50;-11650.84;;;-142.29;100.00
7748;BME280;3918;42.564;23.164;2023-03-08T04:36:18;-11650.84;;;-142.29;100.00
7748;BME280;3918;42.564;23.164;2023-03-08T04:38:46;-11650.84;;;-142.29;100.00
7748;BME280;3918;42.564;23.164;2023-03-08T04:41:15;-11650.84;;;-142.29;100.00
7748;BME280;3918;42.564;23.164;2023-03-08T04:43:44;-11650.84;;;-142.29;100.00
7748;BME280;3918;42.564;23.164;2023-03-08T04:46:12;-11650.84;;;-142.29;100.00
7748;BME280;3918;42.564;23.164;2023-03-08T04:48:39;-11650.84;;;-142.29;100.00
7748;BME280;3918;42.564;23.164;2023-03-08T04:51:07;-11650.84;;;-142.29;100.00
7748;BME280;3918;42.564;23.164;2023-03-08T04:53:35;-11650.84;;;-142.29;100.00
7748;BME280;3918;42.564;23.164;2023-03-08T04:56:04;-11650.84;;;-142.29;100.00
7748;BME280;3918;42.564;23.164;2023-03-08T04:58:33;-11650.84;;;-142.29;100.00
7748;BME280;3918;42.564;23.164;2023-03-08T05:01:08;-11650.84;;;-142.29;100.00
7748;BME280;3918;42.564;23.164;2023-03-08T05:03:35;-11650.84;;;-142.29;100.00
7748;BME280;3918;42.564;23.164;2023-03-08T05:06:02;-11650.84;;;-142.29;100.00
7748;BME280;3918;42.564;23.164;2023-03-08T05:08:29;-11650.84;;;-142.29;100.00
7748;BME280;3918;42.564;23.164;2023-03-08T05:10:58;-11650.84;;;-142.29;100.00
7748;BME280;3918;42.564;23.164;2023-03-08T05:13:25;-11650.84;;;-142.29;100.00
7748;BME280;3918;42.564;23.164;2023-03-08T05:15:54;-11650.84;;;-142.29;100.00
7748;BME280;3918;42.564;23.164;2023-03-08T05:18:21;-11650.84;;;-142.29;100.00
7748;BME280;3918;42.564;23.164;2023-03-08T05:20:53;-11650.84;;;-142.29;100.00
7748;BME280;3918;42.564;23.164;2023-03-08T05:23:20;-11650.84;;;-142.29;100.00
7748;BME280;3918;42.564;23.164;2023-03-08T05:25:51;-11650.84;;;-142.29;100.00
7748;BME280;3918;42.564;23.164;2023-03-08T05:28:18;-11650.84;;;-142.29;100.00
7748;BME280;3918;42.564;23.164;2023-03-08T05:30:45;-11650.84;;;-142.29;100.00
7748;BME280;3918;42.564;23.164;2023-03-08T05:33:13;-11650.84;;;-142.29;100.00
7748;BME280;3918;42.564;23.164;2023-03-08T05:35:40;-11650.84;;;-142.29;100.00
7748;BME280;3918;42.564;23.164;2023-03-08T05:38:07;-11650.84;;;-142.29;100.00
7748;BME280;3918;42.564;23.164;2023-03-08T05:40:34;-11650.84;;;-142.29;100.00
7748;BME280;3918;42.564;23.164;2023-03-08T05:43:00;-11650.84;;;-142.29;100.00
7748;BME280;3918;42.564;23.164;2023-03-08T05:45:27;-11650.84;;;-142.29;100.00
7748;BME280;3918;42.564;23.164;2023-03-08T05:47:54;-11650.84;;;-142.29;100.00
7748;BME280;3918;42.564;23.164;2023-03-08T05:50:22;-11650.84;;;-142.29;100.00
7748;BME280;3918;42.564;23.164;2023-03-08T05:52:49;-11650.84;;;-142.29;100.00
7748;BME280;3918;42.564;23.164;2023-03-08T05:55:15;-11650.84;;;-142.29;100.00
7748;BME280;3918;42.564;23.164;2023-03-08T05:57:42;-11650.84;;;-142.29;100.00
7748;BME280;3918;42.564;23.164;2023-03-08T06:00:10;-11650.84;;;-142.29;100.00
7748;BME280;3918;42.564;23.164;2023-03-08T06:02:37;-11650.84;;;-142.29;100.00
7748;BME280;3918;42.564;23.164;2023-03-08T06:05:04;-11650.84;;;-142.29;100.00
7748;BME280;3918;42.564;23.164;2023-03-08T06:07:32;-11650.84;;;-142.29;100.00
7748;BME280;3918;42.564;23.164;2023-03-08T06:09:59;-11650.84;;;-142.29;100.00
7748;BME280;3918;42.564;23.164;2023-03-08T06:12:26;-11650.84;;;-142.29;100.00
7748;BME280;3918;42.564;23.164;2023-03-08T06:14:53;-11650.84;;;-142.29;100.00
7748;BME280;3918;42.564;23.164;2023-03-08T06:17:19;-11650.84;;;-142.29;100.00
7748;BME280;3918;42.564;23.164;2023-03-08T06:19:46;-11650.84;;;-142.29;100.00
7748;BME280;3918;42.564;23.164;2023-03-08T06:22:15;-11650.84;;;-142.29;100.00
7748;BME280;3918;42.564;23.164;2023-03-08T06:24:43;-11650.84;;;-142.29;100.00
7748;BME280;3918;42.564;23.164;2023-03-08T06:27:14;-11650.84;;;-142.29;100.00
7748;BME280;3918;42.564;23.164;2023-03-08T06:29:40;-11650.84;;;-142.29;100.00
7748;BME280;3918;42.564;23.164;2023-03-08T06:32:07;-11650.84;;;-142.29;100.00
7748;BME280;3918;42.564;23.164;2023-03-08T06:34:34;-11650.84;;;-142.29;100.00
7748;BME280;3918;42.564;23.164;2023-03-08T06:37:01;-11650.84;;;-142.29;100.00
7748;BME280;3918;42.564;23.164;2023-03-08T06:39:27;-11650.84;;;-142.29;100.00
7748;BME280;3918;42.564;23.164;2023-03-08T06:41:57;-11650.84;;;-142.29;100.00
7748;BME280;3918;42.564;23.164;2023-03-08T06:44:25;-11650.84;;;-142.29;78.25
7748;BME280;3918;42.564;23.164;2023-03-08T06:46:52;-11650.84;;;-142.29;58.93
7748;BME280;3918;42.564;23.164;2023-03-08T06:49:19;-11650.84;;;-142.29;47.59
7748;BME280;3918;42.564;23.164;2023-03-08T06:51:46;-11650.84;;;-142.29;43.80
7748;BME280;3918;42.564;23.164;2023-03-08T06:54:13;-11650.84;;;-142.29;41.37
7748;BME280;3918;42.564;23.164;2023-03-08T06:56:42;-11650.84;;;-142.29;42.40
7748;BME280;3918;42.564;23.164;2023-03-08T06:59:10;-11650.84;;;-142.29;45.24
7748;BME280;3918;42.564;23.164;2023-03-08T07:01:37;-11650.84;;;-142.29;46.95
7748;BME280;3918;42.564;23.164;2023-03-08T07:04:04;-11650.84;;;-142.29;49.13
7748;BME280;3918;42.564;23.164;2023-03-08T07:06:31;-11650.84;;;-142.29;51.38
7748;BME280;3918;42.564;23.164;2023-03-08T07:08:58;-11650.84;;;-142.29;52.50
7748;BME280;3918;42.564;23.164;2023-03-08T07:11:25;-11650.84;;;-142.29;53.75
7748;BME280;3918;42.564;23.164;2023-03-08T07:13:53;-11650.84;;;-142.29;54.49
7748;BME280;3918;42.564;23.164;2023-03-08T07:16:21;-11650.84;;;-142.29;56.12
7748;BME280;3918;42.564;23.164;2023-03-08T07:18:48;-11650.84;;;-142.29;59.09
7748;BME280;3918;42.564;23.164;2023-03-08T07:21:15;-11650.84;;;-142.29;63.71
7748;BME280;3918;42.564;23.164;2023-03-08T07:23:42;-11650.84;;;-142.29;66.72
7748;BME280;3918;42.564;23.164;2023-03-08T07:26:09;-11650.84;;;-142.29;70.43
7748;BME280;3918;42.564;23.164;2023-03-08T07:28:36;-11650.84;;;-142.29;72.40
7748;BME280;3918;42.564;23.164;2023-03-08T07:31:03;-11650.84;;;-142.29;69.83
7748;BME280;3918;42.564;23.164;2023-03-08T07:33:31;-11650.84;;;-142.29;67.63
7748;BME280;3918;42.564;23.164;2023-03-08T07:35:58;-11650.84;;;-142.29;64.84
7748;BME280;3918;42.564;23.164;2023-03-08T07:38:26;-11650.84;;;-142.29;64.57
7748;BME280;3918;42.564;23.164;2023-03-08T07:40:54;-11650.84;;;-142.29;64.03
7748;BME280;3918;42.564;23.164;2023-03-08T07:43:22;-11650.84;;;-142.29;61.53
7748;BME280;3918;42.564;23.164;2023-03-08T07:45:48;-11650.84;;;-142.29;58.67
7748;BME280;3918;42.564;23.164;2023-03-08T07:48:15;-11650.84;;;-142.29;57.09
7748;BME280;3918;42.564;23.164;2023-03-08T07:50:43;-11650.84;;;-142.29;57.11
7748;BME280;3918;42.564;23.164;2023-03-08T07:53:10;-11650.84;;;-142.29;55.46
7748;BME280;3918;42.564;23.164;2023-03-08T07:55:37;-11650.84;;;-142.29;55.23
7748;BME280;3918;42.564;23.164;2023-03-08T07:58:04;-11650.84;;;-142.29;54.92
7748;BME280;3918;42.564;23.164;2023-03-08T08:00:31;-11650.84;;;-142.29;56.42
7748;BME280;3918;42.564;23.164;2023-03-08T08:02:57;-11650.84;;;-142.29;57.00
7748;BME280;3918;42.564;23.164;2023-03-08T08:05:24;-11650.84;;;-142.29;57.24
7748;BME280;3918;42.564;23.164;2023-03-08T08:07:52;-11650.84;;;-142.29;55.96
7748;BME280;3918;42.564;23.164;2023-03-08T08:10:19;-11650.84;;;-142.29;55.44
7748;BME280;3918;42.564;23.164;2023-03-08T08:12:46;-11650.84;;;-142.29;55.07
7748;BME280;3918;42.564;23.164;2023-03-08T08:15:13;-11650.84;;;-142.29;55.06
7748;BME280;3918;42.564;23.164;2023-03-08T08:17:41;-11650.84;;;-142.29;53.93
7748;BME280;3918;42.564;23.164;2023-03-08T08:20:09;-11650.84;;;-142.29;54.08
7748;BME280;3918;42.564;23.164;2023-03-08T08:22:36;-11650.84;;;-142.29;52.67
7748;BME280;3918;42.564;23.164;2023-03-08T08:25:05;-11650.84;;;-142.29;49.85
7748;BME280;3918;42.564;23.164;2023-03-08T08:27:33;-11650.84;;;-142.29;50.67
7748;BME280;3918;42.564;23.164;2023-03-08T08:30:00;-11650.84;;;-142.29;50.62
7748;BME280;3918;42.564;23.164;2023-03-08T08:32:28;-11650.84;;;-142.29;50.73
7748;BME280;3918;42.564;23.164;2023-03-08T08:34:55;-11650.84;;;-142.29;50.87
7748;BME280;3918;42.564;23.164;2023-03-08T08:37:22;-11650.84;;;-142.29;50.88
7748;BME280;3918;42.564;23.164;2023-03-08T08:39:48;-11650.84;;;-142.29;49.07
7748;BME280;3918;42.564;23.164;2023-03-08T08:42:16;-11650.84;;;-142.29;48.22
7748;BME280;3918;42.564;23.164;2023-03-08T08:44:43;-11650.84;;;-142.29;49.36
7748;BME280;3918;42.564;23.164;2023-03-08T08:47:10;-11650.84;;;-142.29;50.43
7748;BME280;3918;42.564;23.164;2023-03-08T08:49:37;-11650.84;;;-142.29;51.53
7748;BME280;3918;42.564;23.164;2023-03-08T08:52:03;-11650.84;;;-142.29;51.61
7748;BME280;3918;42.564;23.164;2023-03-08T08:54:30;-11650.84;;;-142.29;53.22
7748;BME280;3918;42.564;23.164;2023-03-08T08:56:58;-11650.84;;;-142.29;52.04
7748;BME280;3918;42.564;23.164;2023-03-08T08:59:26;-11650.84;;;-142.29;52.10
7748;BME280;3918;42.564;23.164;2023-03-08T09:01:53;-11650.84;;;-142.29;50.86
7748;BME280;3918;42.564;23.164;2023-03-08T09:04:20;-11650.84;;;-142.29;51.39
7748;BME280;3918;42.564;23.164;2023-03-08T09:06:46;-11650.84;;;-142.29;51.53
7748;BME280;3918;42.564;23.164;2023-03-08T09:09:13;-11650.84;;;-142.29;51.86
7748;BME280;3918;42.564;23.164;2023-03-08T09:11:41;-11650.84;;;-142.29;51.23
7748;BME280;3918;42.564;23.164;2023-03-08T09:14:08;-11650.84;;;-142.29;51.18
7748;BME280;3918;42.564;23.164;2023-03-08T09:16:36;-11650.84;;;-142.29;51.48
7748;BME280;3918;42.564;23.164;2023-03-08T09:19:03;-11650.84;;;-142.29;51.56
7748;BME280;3918;42.564;23.164;2023-03-08T09:21:31;-11650.84;;;-142.29;51.67
7748;BME280;3918;42.564;23.164;2023-03-08T09:23:59;-11650.84;;;-142.29;50.50
7748;BME280;3918;42.564;23.164;2023-03-08T09:26:28;-11650.84;;;-142.29;50.48
7748;BME280;3918;42.564;23.164;2023-03-08T09:28:57;-11650.84;;;-142.29;51.02
7748;BME280;3918;42.564;23.164;2023-03-08T09:31:23;-11650.84;;;-142.29;53.16
7748;BME280;3918;42.564;23.164;2023-03-08T09:33:51;-11650.84;;;-142.29;51.46
7748;BME280;3918;42.564;23.164;2023-03-08T09:36:19;-11650.84;;;-142.29;50.29
7748;BME280;3918;42.564;23.164;2023-03-08T09:38:46;-11650.84;;;-142.29;48.49
7748;BME280;3918;42.564;23.164;2023-03-08T09:41:36;-11650.84;;;-142.29;46.45
7748;BME280;3918;42.564;23.164;2023-03-08T09:44:15;-11650.84;;;-142.29;46.55
7748;BME280;3918;42.564;23.164;2023-03-08T09:46:45;-11650.84;;;-142.29;45.46
7748;BME280;3918;42.564;23.164;2023-03-08T09:49:20;-11650.84;;;-142.29;46.49
7748;BME280;3918;42.564;23.164;2023-03-08T09:51:51;-11650.84;;;-142.29;46.50
7748;BME280;3918;42.564;23.164;2023-03-08T09:54:22;-11650.84;;;-142.29;46.85
7748;BME280;3918;42.564;23.164;2023-03-08T09:56:51;-11650.84;;;-142.29;47.55
7748;BME280;3918;42.564;23.164;2023-03-08T09:59:24;-11650.84;;;-142.29;47.85
7748;BME280;3918;42.564;23.164;2023-03-08T10:01:57;-11650.84;;;-142.29;48.47
7748;BME280;3918;42.564;23.164;2023-03-08T10:04:40;-11650.84;;;-142.29;48.25
7748;BME280;3918;42.564;23.164;2023-03-08T10:07:21;-11650.84;;;-142.29;48.70
7748;BME280;3918;42.564;23.164;2023-03-08T10:09:58;-11650.84;;;-142.29;48.09
7748;BME280;3918;42.564;23.164;2023-03-08T10:12:32;-11650.84;;;-142.29;48.71
7748;BME280;3918;42.564;23.164;2023-03-08T10:15:03;-11650.84;;;-142.29;47.82
7748;BME280;3918;42.564;23.164;2023-03-08T10:17:38;-11650.84;;;-142.29;48.56
7748;BME280;3918;42.564;23.164;2023-03-08T10:20:17;-11650.84;;;-142.29;46.81
7748;BME280;3918;42.564;23.164;2023-03-08T10:22:48;-11650.84;;;-142.29;47.92
7748;BME280;3918;42.564;23.164;2023-03-08T10:25:21;-11650.84;;;-142.29;47.86
7748;BME280;3918;42.564;23.164;2023-03-08T10:27:51;-11650.84;;;-142.29;46.80
7748;BME280;3918;42.564;23.164;2023-03-08T10:30:21;-11650.84;;;-142.29;47.36
7748;BME280;3918;42.564;23.164;2023-03-08T10:32:50;-11650.84;;;-142.29;47.17
7748;BME280;3918;42.564;23.164;2023-03-08T10:35:30;-11650.84;;;-142.29;46.54
7748;BME280;3918;42.564;23.164;2023-03-08T10:37:57;-11650.84;;;-142.29;45.11
7748;BME280;3918;42.564;23.164;2023-03-08T10:40:24;-11650.84;;;-142.29;45.62
7748;BME280;3918;42.564;23.164;2023-03-08T10:42:52;-11650.84;;;-142.29;45.71
7748;BME280;3918;42.564;23.164;2023-03-08T10:45:20;-11650.84;;;-142.29;46.01
7748;BME280;3918;42.564;23.164;2023-03-08T10:47:56;-11650.84;;;-142.29;45.39
7748;BME280;3918;42.564;23.164;2023-03-08T10:50:26;-11650.84;;;-142.29;45.51
7748;BME280;3918;42.564;23.164;2023-03-08T10:52:54;-11650.84;;;-142.29;45.21
7748;BME280;3918;42.564;23.164;2023-03-08T10:55:23;-11650.84;;;-142.29;45.56
7748;BME280;3918;42.564;23.164;2023-03-08T10:57:53;-11650.84;;;-142.29;45.13
7748;BME280;3918;42.564;23.164;2023-03-08T11:00:30;-11650.84;;;-142.29;44.75
7748;BME280;3918;42.564;23.164;2023-03-08T11:03:11;-11650.84;;;-142.29;45.76
7748;BME280;3918;42.564;23.164;2023-03-08T11:05:50;-11650.84;;;-142.29;45.67
7748;BME280;3918;42.564;23.164;2023-03-08T11:08:20;-11650.84;;;-142.29;45.51
7748;BME280;3918;42.564;23.164;2023-03-08T11:10:59;-11650.84;;;-142.29;46.47
7748;BME280;3918;42.564;23.164;2023-03-08T11:13:28;-11650.84;;;-142.29;45.06
7748;BME280;3918;42.564;23.164;2023-03-08T11:16:03;-11650.84;;;-142.29;45.00
7748;BME280;3918;42.564;23.164;2023-03-08T11:18:43;-11650.84;;;-142.29;45.59
7748;BME280;3918;42.564;23.164;2023-03-08T11:21:19;-11650.84;;;-142.29;45.47
7748;BME280;3918;42.564;23.164;2023-03-08T11:23:54;-11650.84;;;-142.29;44.75
7748;BME280;3918;42.564;23.164;2023-03-08T11:26:32;-11650.84;;;-142.29;44.84
7748;BME280;3918;42.564;23.164;2023-03-08T11:29:13;-11650.84;;;-142.29;44.46
7748;BME280;3918;42.564;23.164;2023-03-08T11:31:48;-11650.84;;;-142.29;45.47
7748;BME280;3918;42.564;23.164;2023-03-08T11:34:25;-11650.84;;;-142.29;46.13
7748;BME280;3918;42.564;23.164;2023-03-08T11:37:03;-11650.84;;;-142.29;46.17
7748;BME280;3918;42.564;23.164;2023-03-08T11:39:35;-11650.84;;;-142.29;46.56
7748;BME280;3918;42.564;23.164;2023-03-08T11:42:11;-11650.84;;;-142.29;46.32
7748;BME280;3918;42.564;23.164;2023-03-08T11:44:53;-11650.84;;;-142.29;45.08
7748;BME280;3918;42.564;23.164;2023-03-08T11:47:43;-11650.84;;;-142.29;44.97
7748;BME280;3918;42.564;23.164;2023-03-08T11:50:20;-11650.84;;;-142.29;45.75
7748;BME280;3918;42.564;23.164;2023-03-08T11:52:58;-11650.84;;;-142.29;45.11
7748;BME280;3918;42.564;23.164;2023-03-08T11:55:41;-11650.84;;;-142.29;45.80
7748;BME280;3918;42.564;23.164;2023-03-08T11:58:14;-11650.84;;;-142.29;43.67
7748;BME280;3918;42.564;23.164;2023-03-08T12:00:45;-11650.84;;;-142.29;44.57
7748;BME280;3918;42.564;23.164;2023-03-08T12:03:15;-11650.84;;;-142.29;43.91
7748;BME280;3918;42.564;23.164;2023-03-08T12:05:48;-11650.84;;;-142.29;45.00
7748;BME280;3918;42.564;23.164;2023-03-08T12:08:22;-11650.84;;;-142.29;45.80
7748;BME280;3918;42.564;23.164;2023-03-08T12:10:53;-11650.84;;;-142.29;45.15
7748;BME280;3918;42.564;23.164;2023-03-08T12:13:25;-11650.84;;;-142.29;46.15
7748;BME280;3918;42.564;23.164;2023-03-08T12:15:57;-11650.84;;;-142.29;45.99
7748;BME280;3918;42.564;23.164;2023-03-08T12:18:30;-11650.84;;;-142.29;45.32
7748;BME280;3918;42.564;23.164;2023-03-08T12:21:17;-11650.84;;;-142.29;45.65
7748;BME280;3918;42.564;23.164;2023-03-08T12:23:53;-11650.84;;;-142.29;45.32
7748;BME280;3918;42.564;23.164;2023-03-08T12:26:26;-11650.84;;;-142.29;44.98
7748;BME280;3918;42.564;23.164;2023-03-08T12:28:55;-11650.84;;;-142.29;44.75
7748;BME280;3918;42.564;23.164;2023-03-08T12:31:25;-11650.84;;;-142.29;44.85
7748;BME280;3918;42.564;23.164;2023-03-08T12:33:53;-11650.84;;;-142.29;44.89
7748;BME280;3918;42.564;23.164;2023-03-08T12:36:21;-11650.84;;;-142.29;44.42
7748;BME280;3918;42.564;23.164;2023-03-08T12:39:07;-11650.84;;;-142.29;43.32
7748;BME280;3918;42.564;23.164;2023-03-08T12:41:35;-11650.84;;;-142.29;43.70
7748;BME280;3918;42.564;23.164;2023-03-08T12:44:03;-11650.84;;;-142.29;43.62